createdAt,value
2019-03-28T00:00:33.066Z,28.00
2019-03-28T00:03:02.840Z,27.27
2019-03-28T00:05:34.156Z,28.00
2019-03-28T00:08:03.967Z,30.60
2019-03-28T00:10:33.559Z,26.13
2019-03-28T00:13:03.466Z,25.77
2019-03-28T00:15:33.248Z,26.67
2019-03-28T00:18:03.263Z,26.17
2019-03-28T00:20:33.176Z,24.90
2019-03-28T00:23:34.107Z,27.60
2019-03-28T00:26:07.314Z,24.37
2019-03-28T00:28:37.166Z,22.97
2019-03-28T00:31:14.041Z,26.57
2019-03-28T00:33:44.369Z,26.97
2019-03-28T00:36:21.202Z,26.57
2019-03-28T00:38:50.940Z,26.40
2019-03-28T00:41:20.729Z,25.63
2019-03-28T00:43:51.112Z,23.07
2019-03-28T00:46:22.676Z,27.77
2019-03-28T00:48:53.454Z,26.90
2019-03-28T00:51:23.211Z,23.33
2019-03-28T00:53:53.011Z,24.97
2019-03-28T00:56:38.419Z,23.40
2019-03-28T00:59:07.021Z,25.67
2019-03-28T01:01:36.889Z,22.00
2019-03-28T01:04:06.603Z,24.97
2019-03-28T01:06:36.385Z,25.00
2019-03-28T01:09:07.611Z,23.03
2019-03-28T01:11:37.339Z,25.77
2019-03-28T01:14:13.365Z,22.23
2019-03-28T01:16:43.058Z,23.97
2019-03-28T01:19:12.922Z,26.43
2019-03-28T01:21:42.812Z,23.33
2019-03-28T01:24:12.596Z,27.57
2019-03-28T01:26:42.310Z,24.17
2019-03-28T01:29:17.481Z,27.27
2019-03-28T01:31:47.169Z,27.13
2019-03-28T01:34:16.932Z,29.27
2019-03-28T01:36:46.712Z,29.50
2019-03-28T01:39:21.710Z,26.57
2019-03-28T01:41:51.739Z,24.27
2019-03-28T01:44:21.464Z,27.30
2019-03-28T01:46:51.264Z,25.77
2019-03-28T01:49:21.256Z,27.80
2019-03-28T01:51:56.176Z,26.67
2019-03-28T01:54:26.229Z,29.23
2019-03-28T01:56:56.044Z,27.57
2019-03-28T01:59:32.206Z,31.50
2019-03-28T02:02:03.977Z,27.13
2019-03-28T02:04:34.190Z,31.97
2019-03-28T02:07:10.429Z,33.00
2019-03-28T02:09:40.402Z,35.77
2019-03-28T02:12:10.145Z,31.70
2019-03-28T02:14:39.856Z,36.73
2019-03-28T02:17:10.505Z,33.03
2019-03-28T02:19:46.227Z,33.97
2019-03-28T02:22:16.293Z,32.97
2019-03-28T02:24:46.074Z,33.87
2019-03-28T02:27:23.793Z,37.90
2019-03-28T02:29:47.338Z,35.63
2019-03-28T02:32:16.961Z,37.70
2019-03-28T02:34:48.943Z,34.07
2019-03-28T02:37:18.491Z,33.40
2019-03-28T02:39:48.333Z,33.27
2019-03-28T02:42:18.138Z,31.17
2019-03-28T02:44:48.141Z,34.07
2019-03-28T02:47:17.970Z,35.23
2019-03-28T02:49:47.702Z,31.03
2019-03-28T02:52:17.740Z,34.83
2019-03-28T02:54:47.549Z,33.40
2019-03-28T02:57:17.370Z,34.83
2019-03-28T02:59:47.179Z,32.87
2019-03-28T03:02:17.021Z,35.23
2019-03-28T03:04:47.467Z,33.53
2019-03-28T03:07:18.132Z,33.97
2019-03-28T03:09:47.885Z,34.53
2019-03-28T03:12:17.665Z,32.23
2019-03-28T03:14:47.578Z,34.63
2019-03-28T03:17:36.119Z,32.83
2019-03-28T03:20:13.032Z,32.77
2019-03-28T03:22:42.807Z,36.53
2019-03-28T03:25:12.543Z,35.33
2019-03-28T03:27:56.998Z,34.63
2019-03-28T03:30:17.863Z,33.47
2019-03-28T03:32:47.784Z,31.87
2019-03-28T03:35:17.510Z,34.53
2019-03-28T03:37:47.241Z,36.87
2019-03-28T03:40:17.806Z,35.03
2019-03-28T03:42:47.546Z,31.20
2019-03-28T03:45:17.440Z,33.83
2019-03-28T03:47:47.182Z,33.10
2019-03-28T03:50:27.089Z,31.97
2019-03-28T03:52:57.037Z,32.20
2019-03-28T03:55:26.675Z,35.27
2019-03-28T03:58:13.834Z,27.63
2019-03-28T04:00:36.463Z,34.53
2019-03-28T04:03:06.157Z,34.70
2019-03-28T04:05:35.883Z,30.83
2019-03-28T04:08:05.696Z,36.33
2019-03-28T04:10:35.298Z,37.30
2019-03-28T04:13:06.415Z,37.70
2019-03-28T04:15:36.294Z,32.07
2019-03-28T04:18:05.932Z,31.97
2019-03-28T04:20:35.636Z,29.13
2019-03-28T04:23:05.853Z,30.73
2019-03-28T04:25:35.637Z,30.97
2019-03-28T04:28:05.235Z,30.20
2019-03-28T04:30:35.074Z,32.07
2019-03-28T04:33:04.746Z,33.30
2019-03-28T04:35:34.433Z,31.77
2019-03-28T04:38:04.408Z,28.20
2019-03-28T04:40:34.564Z,30.60
2019-03-28T04:43:04.566Z,31.20
2019-03-28T04:45:34.347Z,27.57
2019-03-28T04:48:03.975Z,31.37
2019-03-28T04:50:33.776Z,28.33
2019-03-28T04:53:11.521Z,30.17
2019-03-28T04:55:41.215Z,30.97
2019-03-28T04:58:10.907Z,32.40
2019-03-28T05:00:40.756Z,27.37
2019-03-28T05:03:10.454Z,27.30
2019-03-28T05:05:40.436Z,29.73
2019-03-28T05:08:11.756Z,29.63
2019-03-28T05:10:41.830Z,30.80
2019-03-28T05:13:11.500Z,29.50
2019-03-28T05:15:41.131Z,28.83
2019-03-28T05:18:11.022Z,35.83
2019-03-28T05:20:40.776Z,29.90
2019-03-28T05:23:10.444Z,29.43
2019-03-28T05:25:40.162Z,31.50
2019-03-28T05:28:09.972Z,33.47
2019-03-28T05:30:39.880Z,29.07
2019-03-28T05:33:15.830Z,27.47
2019-03-28T05:35:45.590Z,33.43
2019-03-28T05:38:15.331Z,29.43
2019-03-28T05:40:45.264Z,26.70
2019-03-28T05:43:21.493Z,27.17
2019-03-28T05:45:51.343Z,31.17
2019-03-28T05:48:20.971Z,29.03
2019-03-28T05:50:50.586Z,28.07
2019-03-28T05:53:20.585Z,29.23
2019-03-28T05:55:50.311Z,29.23
2019-03-28T05:58:23.478Z,30.67
2019-03-28T06:00:53.229Z,27.77
2019-03-28T06:03:22.877Z,27.40
2019-03-28T06:05:52.713Z,29.00
2019-03-28T06:08:22.270Z,28.77
2019-03-28T06:10:51.911Z,26.83
2019-03-28T06:13:21.733Z,28.30
2019-03-28T06:15:51.449Z,25.37
2019-03-28T06:18:21.387Z,28.17
2019-03-28T06:20:51.659Z,26.90
2019-03-28T06:23:21.383Z,29.73
2019-03-28T06:25:51.038Z,28.87
2019-03-28T06:28:21.011Z,29.10
2019-03-28T06:30:50.663Z,28.33
2019-03-28T06:33:20.435Z,27.43
2019-03-28T06:35:50.247Z,30.77
2019-03-28T06:38:25.910Z,32.17
2019-03-28T06:40:55.820Z,28.80
2019-03-28T06:43:25.473Z,29.87
2019-03-28T06:45:55.703Z,30.07
2019-03-28T06:48:25.659Z,31.33
2019-03-28T06:50:55.551Z,28.47
2019-03-28T06:53:25.377Z,28.60
2019-03-28T06:55:55.201Z,28.27
2019-03-28T06:58:24.932Z,31.77
2019-03-28T07:00:54.671Z,29.33
2019-03-28T07:03:24.637Z,27.47
2019-03-28T07:05:54.617Z,34.07
2019-03-28T07:08:24.202Z,28.10
2019-03-28T07:10:54.275Z,28.77
2019-03-28T07:13:23.854Z,28.13
2019-03-28T07:15:53.573Z,27.03
2019-03-28T07:18:23.707Z,31.90
2019-03-28T07:20:53.338Z,30.27
2019-03-28T07:23:23.169Z,26.97
2019-03-28T07:25:53.044Z,29.20
2019-03-28T07:28:22.735Z,24.10
2019-03-28T07:30:52.449Z,29.73
2019-03-28T07:33:22.391Z,30.63
2019-03-28T07:35:52.125Z,29.87
2019-03-28T07:38:21.790Z,23.67
2019-03-28T07:40:51.712Z,28.43
2019-03-28T07:43:21.356Z,29.33
2019-03-28T07:45:51.067Z,28.63
2019-03-28T07:48:20.942Z,25.00
2019-03-28T07:50:50.612Z,29.33
2019-03-28T07:53:21.524Z,24.10
2019-03-28T07:55:51.710Z,24.33
2019-03-28T07:58:23.454Z,24.53
2019-03-28T08:00:53.279Z,23.47
2019-03-28T08:03:22.982Z,25.90
2019-03-28T08:05:52.759Z,26.33
2019-03-28T08:08:22.920Z,22.13
2019-03-28T08:10:52.552Z,22.07
2019-03-28T08:13:29.303Z,26.70
2019-03-28T08:15:58.941Z,19.50
2019-03-28T08:18:28.420Z,23.43
2019-03-28T08:20:58.275Z,24.63
2019-03-28T08:23:28.205Z,25.07
2019-03-28T08:25:57.918Z,21.33
2019-03-28T08:28:27.872Z,25.27
2019-03-28T08:30:57.576Z,22.67
2019-03-28T08:33:27.408Z,24.13
2019-03-28T08:35:57.536Z,22.93
2019-03-28T08:38:27.472Z,24.70
2019-03-28T08:40:57.202Z,21.33
2019-03-28T08:43:27.360Z,25.20
2019-03-28T08:45:57.050Z,26.20
2019-03-28T08:48:26.704Z,27.53
2019-03-28T08:50:56.483Z,22.07
2019-03-28T08:53:26.149Z,21.97
2019-03-28T08:55:55.801Z,19.33
2019-03-28T08:58:27.153Z,21.00
2019-03-28T09:00:56.799Z,21.57
2019-03-28T09:03:26.529Z,18.87
2019-03-28T09:05:56.284Z,17.73
2019-03-28T09:08:25.999Z,18.63
2019-03-28T09:10:55.696Z,16.20
2019-03-28T09:13:25.413Z,15.20
2019-03-28T09:15:55.177Z,20.00
2019-03-28T09:18:24.796Z,18.43
2019-03-28T09:20:54.543Z,19.27
2019-03-28T09:23:24.123Z,12.67
2019-03-28T09:25:53.769Z,12.43
2019-03-28T09:28:23.665Z,13.80
2019-03-28T09:30:53.325Z,15.37
2019-03-28T09:33:23.277Z,15.40
2019-03-28T09:35:53.204Z,14.20
2019-03-28T09:38:22.774Z,15.63
2019-03-28T09:40:52.507Z,13.20
2019-03-28T09:43:22.437Z,14.73
2019-03-28T09:45:52.148Z,18.00
2019-03-28T09:48:21.757Z,15.33
2019-03-28T09:50:51.667Z,18.90
2019-03-28T09:53:21.317Z,13.30
2019-03-28T09:55:51.024Z,16.43
2019-03-28T09:58:20.698Z,15.07
2019-03-28T10:01:01.950Z,16.73
2019-03-28T10:03:21.696Z,14.27
2019-03-28T10:05:51.663Z,10.93
2019-03-28T10:08:21.556Z,12.60
2019-03-28T10:10:51.200Z,8.20
2019-03-28T10:13:21.113Z,11.50
2019-03-28T10:15:50.680Z,10.63
2019-03-28T10:18:20.562Z,7.07
2019-03-28T10:20:50.953Z,12.67
2019-03-28T10:23:20.677Z,12.40
2019-03-28T10:25:50.242Z,8.03
2019-03-28T10:28:20.006Z,8.20
2019-03-28T10:30:49.746Z,10.20
2019-03-28T10:33:19.459Z,7.13
2019-03-28T10:35:49.409Z,5.90
2019-03-28T10:38:19.052Z,7.97
2019-03-28T10:40:48.762Z,6.63
2019-03-28T10:43:18.652Z,10.23
2019-03-28T10:45:48.503Z,6.43
2019-03-28T10:48:18.325Z,7.30
2019-03-28T10:50:48.074Z,8.13
2019-03-28T10:53:17.775Z,8.47
2019-03-28T10:55:47.393Z,8.03
2019-03-28T10:58:18.778Z,8.93
2019-03-28T11:00:54.628Z,13.37
2019-03-28T11:03:22.984Z,16.77
2019-03-28T11:05:52.867Z,17.57
2019-03-28T11:08:22.731Z,12.00
2019-03-28T11:10:52.630Z,11.13
2019-03-28T11:13:22.688Z,15.13
2019-03-28T11:15:52.391Z,11.93
2019-03-28T11:18:22.258Z,12.83
2019-03-28T11:20:51.977Z,12.70
2019-03-28T11:23:21.721Z,10.30
2019-03-28T11:25:51.704Z,7.57
2019-03-28T11:28:23.443Z,10.37
2019-03-28T11:30:53.055Z,5.30
2019-03-28T11:33:22.686Z,11.33
2019-03-28T11:35:54.631Z,10.47
2019-03-28T11:38:24.175Z,10.13
2019-03-28T11:40:58.071Z,8.30
2019-03-28T11:43:27.612Z,11.23
2019-03-28T11:45:57.362Z,8.17
2019-03-28T11:48:27.171Z,9.00
2019-03-28T11:50:56.814Z,7.63
2019-03-28T11:53:26.363Z,11.67
2019-03-28T11:55:59.214Z,8.30
2019-03-28T11:58:29.138Z,11.67
2019-03-28T12:00:58.952Z,7.90
2019-03-28T12:03:28.650Z,9.10
2019-03-28T12:05:58.401Z,6.93
2019-03-28T12:08:28.225Z,8.90
2019-03-28T12:10:57.870Z,9.77
2019-03-28T12:13:27.416Z,7.73
2019-03-28T12:15:57.353Z,9.13
2019-03-28T12:18:26.983Z,9.87
2019-03-28T12:20:56.600Z,9.20
2019-03-28T12:23:26.490Z,11.13
2019-03-28T12:25:56.108Z,9.63
2019-03-28T12:28:25.736Z,7.80
2019-03-28T12:30:57.159Z,11.37
2019-03-28T12:33:26.897Z,7.70
2019-03-28T12:35:56.628Z,8.40
2019-03-28T12:38:26.381Z,7.00
2019-03-28T12:40:55.997Z,9.73
2019-03-28T12:43:25.585Z,8.30
2019-03-28T12:45:55.615Z,8.93
2019-03-28T12:48:25.327Z,5.60
2019-03-28T12:50:58.919Z,4.43
2019-03-28T12:53:26.695Z,7.17
2019-03-28T12:55:56.510Z,6.87
2019-03-28T12:58:26.203Z,8.60
2019-03-28T13:00:56.060Z,8.40
2019-03-28T13:03:25.815Z,8.13
2019-03-28T13:05:55.460Z,7.57
2019-03-28T13:08:25.252Z,7.50
2019-03-28T13:10:54.896Z,10.27
2019-03-28T13:13:24.563Z,8.40
2019-03-28T13:15:54.693Z,9.13
2019-03-28T13:18:24.403Z,8.70
2019-03-28T13:20:54.102Z,8.37
2019-03-28T13:23:24.033Z,7.27
2019-03-28T13:25:53.760Z,9.63
2019-03-28T13:28:28.587Z,8.00
2019-03-28T13:30:58.466Z,9.03
2019-03-28T13:33:28.309Z,8.73
2019-03-28T13:35:58.081Z,7.03
2019-03-28T13:38:27.717Z,8.03
2019-03-28T13:40:57.487Z,8.33
2019-03-28T13:43:33.035Z,7.57
2019-03-28T13:46:08.846Z,9.33
2019-03-28T13:48:38.725Z,8.37
2019-03-28T13:51:15.862Z,9.43
2019-03-28T13:53:45.590Z,9.03
2019-03-28T13:56:21.602Z,9.30
2019-03-28T13:58:51.476Z,9.33
2019-03-28T14:01:21.388Z,7.90
2019-03-28T14:03:53.960Z,6.80
2019-03-28T14:06:23.926Z,8.20
2019-03-28T14:08:53.445Z,7.90
2019-03-28T14:11:23.393Z,6.07
2019-03-28T14:13:52.995Z,7.50
2019-03-28T14:16:23.122Z,5.50
2019-03-28T14:18:53.441Z,4.93
2019-03-28T14:21:23.115Z,8.53
2019-03-28T14:23:52.712Z,4.93
2019-03-28T14:26:22.605Z,7.83
2019-03-28T14:28:52.194Z,5.27
2019-03-28T14:31:30.505Z,8.03
2019-03-28T14:34:00.092Z,6.07
2019-03-28T14:36:29.700Z,7.00
2019-03-28T14:38:59.639Z,8.70
2019-03-28T14:41:29.248Z,9.67
2019-03-28T14:43:58.923Z,7.53
2019-03-28T14:46:28.869Z,8.30
2019-03-28T14:48:58.554Z,7.07
2019-03-28T14:51:28.209Z,7.20
2019-03-28T14:53:58.058Z,7.10
2019-03-28T14:56:28.041Z,7.63
2019-03-28T14:58:59.258Z,8.27
2019-03-28T15:01:28.860Z,7.10
2019-03-28T15:03:58.488Z,8.97
2019-03-28T15:06:28.283Z,8.30
2019-03-28T15:08:57.834Z,7.70
2019-03-28T15:11:27.648Z,8.73
2019-03-28T15:13:57.514Z,7.63
2019-03-28T15:16:27.155Z,7.47
2019-03-28T15:18:56.776Z,7.90
2019-03-28T15:21:26.636Z,9.00
2019-03-28T15:23:56.446Z,12.53
2019-03-28T15:26:26.214Z,8.43
2019-03-28T15:28:56.782Z,9.60
2019-03-28T15:31:26.605Z,10.50
2019-03-28T15:33:56.220Z,10.20
2019-03-28T15:36:27.352Z,10.53
2019-03-28T15:38:57.136Z,10.70
2019-03-28T15:41:27.070Z,9.23
2019-03-28T15:43:56.676Z,11.07
2019-03-28T15:46:26.374Z,10.10
2019-03-28T15:48:56.112Z,9.30
2019-03-28T15:51:25.907Z,14.53
2019-03-28T15:53:55.512Z,10.60
2019-03-28T15:56:25.551Z,13.00
2019-03-28T15:58:55.201Z,14.50
2019-03-28T16:01:24.882Z,15.50
2019-03-28T16:03:54.984Z,8.93
2019-03-28T16:06:24.674Z,12.53
2019-03-28T16:08:56.542Z,11.87
2019-03-28T16:11:26.349Z,13.63
2019-03-28T16:14:03.143Z,13.83
2019-03-28T16:16:32.880Z,13.90
2019-03-28T16:19:08.719Z,12.73
2019-03-28T16:21:38.430Z,15.10
2019-03-28T16:24:14.478Z,14.73
2019-03-28T16:26:44.145Z,13.37
2019-03-28T16:29:19.626Z,11.27
2019-03-28T16:31:49.311Z,15.90
2019-03-28T16:34:25.388Z,14.53
2019-03-28T16:36:55.023Z,14.87
2019-03-28T16:39:24.819Z,11.93
2019-03-28T16:41:57.206Z,15.33
2019-03-28T16:44:26.807Z,14.10
2019-03-28T16:46:56.413Z,12.97
2019-03-28T16:49:26.113Z,14.00
2019-03-28T16:51:55.745Z,11.83
2019-03-28T16:54:25.360Z,14.17
2019-03-28T16:56:55.043Z,16.00
2019-03-28T16:59:24.619Z,15.00
2019-03-28T17:01:54.230Z,15.37
2019-03-28T17:04:23.965Z,13.27
2019-03-28T17:06:53.688Z,15.30
2019-03-28T17:09:24.368Z,17.33
2019-03-28T17:11:54.104Z,11.53
2019-03-28T17:14:26.458Z,18.97
2019-03-28T17:16:56.449Z,14.43
2019-03-28T17:19:28.258Z,13.57
2019-03-28T17:21:58.111Z,11.50
2019-03-28T17:24:28.104Z,12.93
2019-03-28T17:26:57.887Z,13.93
2019-03-28T17:29:27.726Z,17.53
2019-03-28T17:31:57.322Z,14.47
2019-03-28T17:34:34.641Z,16.00
2019-03-28T17:36:58.270Z,14.20
2019-03-28T17:39:27.956Z,13.47
2019-03-28T17:41:57.742Z,13.93
2019-03-28T17:44:27.590Z,14.13
2019-03-28T17:46:57.196Z,20.87
2019-03-28T17:49:26.832Z,15.87
2019-03-28T17:51:56.732Z,16.70
2019-03-28T17:54:26.655Z,15.83
2019-03-28T17:56:56.262Z,15.43
2019-03-28T17:59:26.062Z,18.37
2019-03-28T18:01:55.890Z,16.43
2019-03-28T18:04:25.483Z,18.43
2019-03-28T18:06:55.502Z,20.80
2019-03-28T18:09:25.180Z,17.40
2019-03-28T18:11:54.848Z,17.30
2019-03-28T18:14:24.634Z,17.43
2019-03-28T18:16:54.272Z,16.87
2019-03-28T18:19:23.899Z,15.20
2019-03-28T18:22:03.427Z,18.43
2019-03-28T18:24:25.091Z,18.30
2019-03-28T18:26:54.956Z,16.73
2019-03-28T18:29:25.092Z,20.43
2019-03-28T18:31:54.730Z,24.43
2019-03-28T18:34:24.578Z,17.37
2019-03-28T18:36:55.671Z,23.07
2019-03-28T18:39:29.188Z,19.13
2019-03-28T18:41:59.025Z,20.07
2019-03-28T18:44:28.939Z,17.30
2019-03-28T18:46:58.678Z,20.27
2019-03-28T18:49:28.502Z,17.77
2019-03-28T18:51:58.371Z,21.13
2019-03-28T18:54:28.027Z,24.53
2019-03-28T18:56:57.741Z,22.60
2019-03-28T18:59:27.528Z,19.97
2019-03-28T19:01:57.154Z,19.93
2019-03-28T19:04:26.785Z,18.10
2019-03-28T19:06:57.906Z,23.17
2019-03-28T19:09:27.906Z,21.47
2019-03-28T19:11:57.525Z,20.07
2019-03-28T19:14:28.185Z,19.50
2019-03-28T19:16:57.654Z,21.53
2019-03-28T19:19:38.573Z,22.53
2019-03-28T19:21:58.540Z,26.80
2019-03-28T19:24:28.244Z,21.13
2019-03-28T19:26:57.875Z,21.10
2019-03-28T19:29:27.708Z,25.63
2019-03-28T19:31:57.298Z,22.20
2019-03-28T19:34:29.123Z,27.10
2019-03-28T19:36:58.991Z,22.97
2019-03-28T19:39:30.792Z,21.67
2019-03-28T19:42:04.096Z,22.97
2019-03-28T19:44:38.962Z,28.93
2019-03-28T19:47:08.579Z,29.20
2019-03-28T19:49:38.212Z,25.97
2019-03-28T19:52:08.176Z,26.33
2019-03-28T19:54:38.744Z,28.70
2019-03-28T19:57:08.428Z,27.77
2019-03-28T19:59:38.352Z,24.87
2019-03-28T20:02:09.322Z,29.57
2019-03-28T20:04:39.410Z,29.27
2019-03-28T20:07:20.862Z,29.80
2019-03-28T20:09:40.727Z,26.70
2019-03-28T20:12:10.342Z,29.97
2019-03-28T20:14:40.128Z,29.27
2019-03-28T20:17:19.118Z,30.70
2019-03-28T20:19:48.775Z,31.13
2019-03-28T20:22:23.870Z,30.53
2019-03-28T20:24:53.599Z,31.73
2019-03-28T20:27:23.424Z,32.37
2019-03-28T20:29:54.666Z,32.20
2019-03-28T20:32:30.123Z,31.10
2019-03-28T20:34:59.995Z,31.00
2019-03-28T20:37:31.795Z,32.63
2019-03-28T20:40:10.749Z,33.90
2019-03-28T20:42:40.378Z,31.00
2019-03-28T20:45:13.833Z,32.83
2019-03-28T20:47:43.513Z,30.43
2019-03-28T20:50:15.285Z,33.00
2019-03-28T20:52:45.016Z,34.10
2019-03-28T20:55:16.739Z,32.97
2019-03-28T20:57:46.402Z,31.00
2019-03-28T21:00:17.970Z,33.57
2019-03-28T21:02:48.729Z,31.10
2019-03-28T21:05:20.883Z,32.53
2019-03-28T21:07:50.499Z,33.23
2019-03-28T21:10:25.265Z,39.53
2019-03-28T21:12:55.379Z,34.17
2019-03-28T21:15:25.062Z,32.17
2019-03-28T21:17:54.919Z,33.87
2019-03-28T21:20:31.278Z,30.53
2019-03-28T21:23:01.137Z,31.77
2019-03-28T21:25:30.787Z,28.90
2019-03-28T21:28:00.465Z,29.47
2019-03-28T21:30:30.608Z,29.70
2019-03-28T21:33:00.210Z,27.73
2019-03-28T21:35:29.898Z,26.70
2019-03-28T21:37:59.825Z,30.77
2019-03-28T21:40:29.460Z,30.80
2019-03-28T21:42:59.070Z,30.23
2019-03-28T21:45:28.966Z,28.33
2019-03-28T21:47:58.682Z,31.10
2019-03-28T21:50:28.291Z,28.67
2019-03-28T21:52:58.066Z,29.13
2019-03-28T21:55:27.672Z,30.87
2019-03-28T21:57:57.525Z,32.33
2019-03-28T22:00:27.635Z,29.37
2019-03-28T22:02:57.168Z,33.37
2019-03-28T22:05:28.879Z,31.07
2019-03-28T22:07:58.286Z,30.57
2019-03-28T22:10:27.902Z,32.60
2019-03-28T22:12:57.486Z,32.13
2019-03-28T22:15:27.239Z,35.67
2019-03-28T22:17:56.742Z,35.37
2019-03-28T22:20:26.490Z,33.20
2019-03-28T22:22:56.293Z,32.60
2019-03-28T22:25:25.905Z,33.10
2019-03-28T22:27:55.503Z,30.93
2019-03-28T22:30:25.177Z,34.27
2019-03-28T22:32:54.771Z,34.87
2019-03-28T22:35:24.383Z,32.77
2019-03-28T22:37:54.734Z,28.53
2019-03-28T22:40:24.653Z,29.10
2019-03-28T22:42:54.103Z,30.83
2019-03-28T22:45:23.812Z,33.37
2019-03-28T22:47:53.433Z,31.03
2019-03-28T22:50:23.982Z,31.80
2019-03-28T22:52:54.005Z,28.80
2019-03-28T22:55:23.703Z,30.10
2019-03-28T22:57:54.174Z,28.83
2019-03-28T23:00:31.093Z,32.63
2019-03-28T23:03:07.849Z,40.40
2019-03-28T23:05:39.827Z,34.10
2019-03-28T23:08:21.916Z,37.43
2019-03-28T23:10:51.685Z,32.77
2019-03-28T23:13:21.275Z,31.43
2019-03-28T23:15:50.887Z,34.67
2019-03-28T23:18:20.652Z,35.90
2019-03-28T23:20:50.376Z,31.27
2019-03-28T23:23:19.893Z,33.53
2019-03-28T23:25:49.675Z,30.87
2019-03-28T23:28:19.638Z,34.57
2019-03-28T23:30:49.346Z,36.53
2019-03-28T23:33:19.214Z,31.97
2019-03-28T23:35:48.802Z,34.37
2019-03-28T23:38:21.703Z,30.67
2019-03-28T23:40:51.294Z,34.90
2019-03-28T23:43:20.961Z,37.57
2019-03-28T23:45:50.861Z,32.70
2019-03-28T23:48:21.157Z,34.13
2019-03-28T23:50:51.410Z,33.67
2019-03-28T23:53:21.295Z,34.10
2019-03-28T23:55:50.907Z,31.30
2019-03-28T23:58:21.050Z,36.70
